Terminal Aerodrome Forecast
Issued by NWS Twin Cities, MN

Home | Current Version | Previous Version | Graphics & Text | Print | Product List | Glossary On
Versions: 1 2 3 4 5 6 7 8 9 10 11 12 13 14 15 16
688
FTUS43 KMPX 251257 AAA
TAFEAU
TAF AMD
KEAU 251257Z 2513/2612 19007KT P6SM BKN100
      TEMPO 2513/2515 4SM -TSRA BR BKN050CB
     FM251900 24009KT P6SM SCT070 PROB30 2522/2524 P6SM TS BKN050CB
     FM260300 23003KT P6SM FEW070=

USA.gov is the U.S. government's official web portal to all federal, state and local government web resources and services.